createdAt,value
2024-01-11T00:02:25.790Z,8.43
2024-01-11T00:04:52.420Z,9.52
2024-01-11T00:07:19.569Z,6.50
2024-01-11T00:09:46.104Z,8.65
2024-01-11T00:12:12.809Z,7.20
2024-01-11T00:14:39.337Z,7.38
2024-01-11T00:17:06.006Z,8.10
2024-01-11T00:19:33.096Z,9.38
2024-01-11T00:21:59.629Z,11.30
2024-01-11T00:24:26.181Z,7.17
2024-01-11T00:26:52.713Z,9.32
2024-01-11T00:29:19.439Z,10.82
2024-01-11T00:31:46.093Z,9.20
2024-01-11T00:34:12.719Z,5.50
2024-01-11T00:36:39.631Z,7.03
2024-01-11T00:39:06.309Z,6.43
2024-01-11T00:41:33.140Z,8.32
2024-01-11T00:43:59.764Z,7.80
2024-01-11T00:46:26.549Z,7.90
2024-01-11T00:48:56.493Z,6.00
2024-01-11T00:51:23.555Z,7.13
2024-01-11T00:53:50.068Z,4.95
2024-01-11T00:56:20.417Z,4.88
2024-01-11T00:58:47.184Z,8.57
2024-01-11T01:01:14.296Z,8.87
2024-01-11T01:03:41.291Z,9.45
2024-01-11T01:06:08.096Z,7.85
2024-01-11T01:08:34.742Z,6.40
2024-01-11T01:11:01.399Z,9.60
2024-01-11T01:13:28.280Z,8.10
2024-01-11T01:15:54.786Z,5.63
2024-01-11T01:18:21.512Z,5.25
2024-01-11T01:20:48.295Z,8.50
2024-01-11T01:23:14.911Z,10.63
2024-01-11T01:25:41.522Z,8.53
2024-01-11T01:28:08.129Z,7.28
2024-01-11T01:30:34.725Z,9.27
2024-01-11T01:33:01.353Z,6.35
2024-01-11T01:35:27.908Z,7.07
2024-01-11T01:37:54.529Z,10.90
2024-01-11T01:40:21.133Z,7.28
2024-01-11T01:42:48.103Z,9.48
2024-01-11T01:45:16.535Z,9.40
2024-01-11T01:47:44.672Z,7.30
2024-01-11T01:50:12.717Z,8.73
2024-01-11T01:52:43.790Z,7.25
2024-01-11T01:55:11.751Z,6.53
2024-01-11T01:57:41.252Z,8.35
2024-01-11T02:00:11.829Z,8.85
2024-01-11T02:02:40.905Z,10.43
2024-01-11T02:05:08.875Z,6.90
2024-01-11T02:07:36.385Z,9.32
2024-01-11T02:10:03.712Z,9.40
2024-01-11T02:12:30.521Z,6.63
2024-01-11T02:14:57.186Z,7.03
2024-01-11T02:17:23.757Z,10.77
2024-01-11T02:19:50.396Z,6.30
2024-01-11T02:22:23.408Z,9.55
2024-01-11T02:24:49.923Z,6.25
2024-01-11T02:27:16.580Z,8.43
2024-01-11T02:29:43.221Z,7.25
2024-01-11T02:32:09.936Z,8.68
2024-01-11T02:34:36.878Z,8.23
2024-01-11T02:37:03.700Z,8.80
2024-01-11T02:39:30.353Z,12.17
2024-01-11T02:41:58.526Z,11.50
2024-01-11T02:44:25.972Z,8.13
2024-01-11T02:46:52.560Z,9.75
2024-01-11T02:49:19.307Z,13.52
2024-01-11T02:51:46.361Z,11.27
2024-01-11T02:54:12.914Z,9.85
2024-01-11T02:56:39.592Z,13.32
2024-01-11T02:59:06.200Z,10.23
2024-01-11T03:01:33.610Z,7.53
2024-01-11T03:04:01.192Z,8.97
2024-01-11T03:06:27.938Z,13.30
2024-01-11T03:08:54.479Z,10.55
2024-01-11T03:11:21.076Z,9.18
2024-01-11T03:13:47.591Z,11.25
2024-01-11T03:16:14.695Z,11.20
2024-01-11T03:18:41.496Z,9.00
2024-01-11T03:21:08.299Z,9.65
2024-01-11T03:23:34.861Z,14.18
2024-01-11T03:26:02.108Z,16.17
2024-01-11T03:28:28.766Z,14.73
2024-01-11T03:30:55.590Z,11.60
2024-01-11T03:33:22.344Z,14.35
2024-01-11T03:35:49.241Z,14.75
2024-01-11T03:38:15.865Z,15.10
2024-01-11T03:40:42.608Z,12.37
2024-01-11T03:43:09.138Z,11.23
2024-01-11T03:45:35.594Z,12.00
2024-01-11T03:48:02.120Z,10.18
2024-01-11T03:50:28.703Z,13.38
2024-01-11T03:52:55.394Z,14.57
2024-01-11T03:55:21.997Z,19.63
2024-01-11T03:57:48.541Z,9.98
2024-01-11T04:00:15.524Z,9.18
2024-01-11T04:02:42.176Z,16.45
2024-01-11T04:05:09.213Z,16.17
2024-01-11T04:07:35.833Z,16.25
2024-01-11T04:10:02.391Z,13.88
2024-01-11T04:12:28.958Z,14.32
2024-01-11T04:14:55.482Z,10.45
2024-01-11T04:17:22.101Z,14.47
2024-01-11T04:19:48.616Z,13.68
2024-01-11T04:22:15.163Z,15.73
2024-01-11T04:24:43.235Z,14.85
2024-01-11T04:27:09.920Z,13.80
2024-01-11T04:29:36.515Z,22.17
2024-01-11T04:32:03.310Z,12.98
2024-01-11T04:34:30.994Z,13.23
2024-01-11T04:36:57.611Z,12.32
2024-01-11T04:39:24.091Z,9.48
2024-01-11T04:41:50.588Z,13.87
2024-01-11T04:44:17.227Z,13.88
2024-01-11T04:46:44.656Z,12.07
2024-01-11T04:49:11.260Z,14.23
2024-01-11T04:51:37.858Z,16.27
2024-01-11T04:54:04.357Z,20.30
2024-01-11T04:56:30.958Z,14.18
2024-01-11T04:58:57.690Z,18.70
2024-01-11T05:01:24.303Z,16.80
2024-01-11T05:03:51.029Z,17.02
2024-01-11T05:06:22.058Z,23.67
2024-01-11T05:08:51.030Z,16.98
2024-01-11T05:11:18.528Z,16.80
2024-01-11T05:13:49.423Z,18.17
2024-01-11T05:16:26.932Z,14.38
2024-01-11T05:18:54.601Z,15.93
2024-01-11T05:21:22.297Z,14.73
2024-01-11T05:23:50.108Z,12.38
2024-01-11T05:26:18.462Z,20.52
2024-01-11T05:28:45.404Z,18.92
2024-01-11T05:31:14.361Z,21.23
2024-01-11T05:33:41.129Z,26.65
2024-01-11T05:36:08.263Z,25.15
2024-01-11T05:38:35.529Z,23.23
2024-01-11T05:41:03.016Z,21.60
2024-01-11T05:43:29.860Z,18.67
2024-01-11T05:45:56.525Z,20.48
2024-01-11T05:48:23.138Z,23.10
2024-01-11T05:50:49.656Z,25.75
2024-01-11T05:53:16.365Z,24.45
2024-01-11T05:55:42.890Z,20.87
2024-01-11T05:58:09.467Z,22.30
2024-01-11T06:00:36.322Z,20.23
2024-01-11T06:03:02.941Z,20.20
2024-01-11T06:05:29.576Z,15.77
2024-01-11T06:07:56.258Z,21.10
2024-01-11T06:10:22.883Z,16.83
2024-01-11T06:12:49.344Z,21.45
2024-01-11T06:15:15.875Z,18.88
2024-01-11T06:17:42.501Z,19.20
2024-01-11T06:20:11.232Z,16.37
2024-01-11T06:22:37.868Z,17.45
2024-01-11T06:25:05.123Z,19.40
2024-01-11T06:27:31.676Z,17.92
2024-01-11T06:29:58.282Z,16.52
2024-01-11T06:32:24.912Z,19.47
2024-01-11T06:34:51.527Z,14.90
2024-01-11T06:37:18.193Z,15.27
2024-01-11T06:39:44.662Z,24.15
2024-01-11T06:42:11.209Z,18.42
2024-01-11T06:44:37.756Z,20.67
2024-01-11T06:47:06.720Z,22.40
2024-01-11T06:49:33.445Z,21.90
2024-01-11T06:51:59.988Z,21.10
2024-01-11T06:54:26.674Z,21.75
2024-01-11T06:56:53.493Z,20.13
2024-01-11T06:59:20.059Z,20.98
2024-01-11T07:01:46.912Z,19.38
2024-01-11T07:04:13.562Z,13.85
2024-01-11T07:06:40.277Z,18.08
2024-01-11T07:09:07.148Z,17.50
2024-01-11T07:11:33.899Z,20.42
2024-01-11T07:14:00.768Z,17.05
2024-01-11T07:16:27.292Z,18.77
2024-01-11T07:18:54.049Z,20.70
2024-01-11T07:21:31.026Z,22.33
2024-01-11T07:23:58.074Z,24.25
2024-01-11T07:26:25.518Z,21.70
2024-01-11T07:28:52.462Z,26.85
2024-01-11T07:31:19.056Z,18.38
2024-01-11T07:33:46.239Z,20.00
2024-01-11T07:36:13.363Z,22.38
2024-01-11T07:38:40.050Z,21.20
2024-01-11T07:41:07.396Z,26.17
2024-01-11T07:43:45.459Z,16.65
2024-01-11T07:46:20.944Z,20.60
2024-01-11T07:48:50.120Z,18.23
2024-01-11T07:51:16.767Z,20.88
2024-01-11T07:53:43.276Z,25.00
2024-01-11T07:56:09.804Z,20.10
2024-01-11T07:58:38.601Z,26.37
2024-01-11T08:01:05.722Z,21.92
2024-01-11T08:03:32.402Z,25.00
2024-01-11T08:05:59.014Z,23.15
2024-01-11T08:08:25.807Z,23.05
2024-01-11T08:10:52.348Z,17.07
2024-01-11T08:13:20.141Z,22.05
2024-01-11T08:15:46.775Z,22.15
2024-01-11T08:18:13.499Z,22.35
2024-01-11T08:20:40.712Z,19.45
2024-01-11T08:23:07.845Z,21.73
2024-01-11T08:25:34.410Z,22.38
2024-01-11T08:28:01.326Z,20.58
2024-01-11T08:30:27.902Z,20.80
2024-01-11T08:32:54.696Z,20.17
2024-01-11T08:35:21.686Z,17.50
2024-01-11T08:37:48.850Z,21.95
2024-01-11T08:40:15.641Z,20.15
2024-01-11T08:42:43.870Z,25.35
2024-01-11T08:45:10.821Z,20.48
2024-01-11T08:47:39.446Z,28.27
2024-01-11T08:50:07.550Z,22.67
2024-01-11T08:52:34.889Z,19.42
2024-01-11T08:55:01.443Z,30.05
2024-01-11T08:57:28.273Z,26.45
2024-01-11T08:59:55.665Z,24.80
2024-01-11T09:02:25.438Z,18.67
2024-01-11T09:04:53.774Z,24.35
2024-01-11T09:07:21.210Z,24.92
2024-01-11T09:09:53.965Z,14.82
2024-01-11T09:12:23.676Z,16.30
2024-01-11T09:14:50.296Z,22.65
2024-01-11T09:17:17.031Z,22.90
2024-01-11T09:19:43.670Z,26.55
2024-01-11T09:22:11.488Z,22.40
2024-01-11T09:24:39.871Z,22.17
2024-01-11T09:27:07.041Z,14.73
2024-01-11T09:29:33.650Z,13.68
2024-01-11T09:32:01.280Z,24.33
2024-01-11T09:34:28.118Z,21.98
2024-01-11T09:36:54.739Z,20.43
2024-01-11T09:39:21.268Z,20.17
2024-01-11T09:41:57.145Z,15.90
2024-01-11T09:44:25.263Z,24.13
2024-01-11T09:46:53.229Z,13.52
2024-01-11T09:49:23.005Z,17.63
2024-01-11T09:51:50.759Z,18.02
2024-01-11T09:54:20.313Z,21.58
2024-01-11T09:56:47.258Z,23.35
2024-01-11T09:59:15.247Z,26.02
2024-01-11T10:01:41.966Z,19.93
2024-01-11T10:04:09.058Z,18.30
2024-01-11T10:06:39.236Z,21.08
2024-01-11T10:09:06.451Z,23.38
2024-01-11T10:11:35.033Z,24.42
2024-01-11T10:14:02.594Z,20.57
2024-01-11T10:16:32.452Z,29.08
2024-01-11T10:18:59.303Z,25.27
2024-01-11T10:21:26.179Z,21.08
2024-01-11T10:23:52.869Z,18.40
2024-01-11T10:26:20.231Z,15.27
2024-01-11T10:28:47.675Z,26.90
2024-01-11T10:31:16.220Z,24.77
2024-01-11T10:33:43.012Z,21.92
2024-01-11T10:36:12.957Z,22.35
2024-01-11T10:38:41.019Z,26.33
2024-01-11T10:41:08.738Z,21.27
2024-01-11T10:43:39.142Z,18.15
2024-01-11T10:46:07.890Z,20.27
2024-01-11T10:48:45.651Z,18.58
2024-01-11T10:51:17.387Z,23.00
2024-01-11T10:53:49.057Z,18.60
2024-01-11T10:56:19.790Z,18.55
2024-01-11T10:58:48.080Z,18.60
2024-01-11T11:01:15.404Z,20.33
2024-01-11T11:03:45.439Z,19.43
2024-01-11T11:06:13.446Z,23.02
2024-01-11T11:08:41.497Z,17.50
2024-01-11T11:11:09.214Z,17.20
2024-01-11T11:13:36.321Z,17.75
2024-01-11T11:16:05.172Z,15.57
2024-01-11T11:18:34.669Z,21.35
2024-01-11T11:21:01.960Z,21.50
2024-01-11T11:23:28.858Z,22.45
2024-01-11T11:25:58.821Z,25.98
2024-01-11T11:28:27.041Z,18.30
2024-01-11T11:30:54.532Z,20.63
2024-01-11T11:33:24.121Z,22.08
2024-01-11T11:35:59.416Z,19.58
2024-01-11T11:38:31.403Z,19.20
2024-01-11T11:40:59.936Z,19.03
2024-01-11T11:43:28.440Z,17.35
2024-01-11T11:45:55.586Z,18.33
2024-01-11T11:48:32.545Z,21.85
2024-01-11T11:51:14.940Z,20.48
2024-01-11T11:53:44.465Z,17.67
2024-01-11T11:56:11.943Z,18.27
2024-01-11T11:58:40.127Z,16.05
2024-01-11T12:01:06.932Z,20.23
2024-01-11T12:03:38.503Z,15.43
2024-01-11T12:06:07.052Z,17.70
2024-01-11T12:08:33.763Z,21.40
2024-01-11T12:11:00.843Z,16.17
2024-01-11T12:13:27.824Z,18.27
2024-01-11T12:15:54.594Z,20.65
2024-01-11T12:18:21.399Z,14.07
2024-01-11T12:20:48.301Z,16.52
2024-01-11T12:23:15.719Z,17.40
2024-01-11T12:25:42.719Z,18.80
2024-01-11T12:28:09.421Z,15.27
2024-01-11T12:30:36.089Z,18.73
2024-01-11T12:33:03.993Z,16.83
2024-01-11T12:35:32.326Z,18.27
2024-01-11T12:38:07.543Z,16.27
2024-01-11T12:40:36.426Z,18.33
2024-01-11T12:43:03.281Z,18.00
2024-01-11T12:45:30.919Z,16.88
2024-01-11T12:47:58.103Z,18.13
2024-01-11T12:50:27.694Z,23.13
2024-01-11T12:53:21.525Z,15.70
2024-01-11T12:56:04.995Z,18.10
2024-01-11T12:58:31.783Z,14.55
2024-01-11T13:00:58.569Z,15.02
2024-01-11T13:03:28.465Z,16.27
2024-01-11T13:05:55.256Z,18.15
2024-01-11T13:08:22.168Z,15.90
2024-01-11T13:10:49.520Z,20.80
2024-01-11T13:13:17.058Z,17.75
2024-01-11T13:15:43.625Z,12.07
2024-01-11T13:18:10.630Z,15.23
2024-01-11T13:20:37.438Z,18.23
2024-01-11T13:23:14.747Z,14.98
2024-01-11T13:25:42.675Z,15.57
2024-01-11T13:28:09.711Z,15.38
2024-01-11T13:30:37.536Z,15.30
2024-01-11T13:33:04.713Z,14.50
2024-01-11T13:35:31.753Z,16.98
2024-01-11T13:37:58.336Z,14.90
2024-01-11T13:40:24.854Z,13.38
2024-01-11T13:42:52.067Z,13.27
2024-01-11T13:45:18.830Z,11.30
2024-01-11T13:47:45.451Z,12.10
2024-01-11T13:50:12.224Z,16.60
2024-01-11T13:52:39.051Z,12.57
2024-01-11T13:55:05.678Z,16.58
2024-01-11T13:57:32.212Z,18.37
2024-01-11T13:59:58.746Z,11.85
2024-01-11T14:02:25.452Z,20.50
2024-01-11T14:04:52.136Z,18.50
2024-01-11T14:07:18.788Z,13.80
2024-01-11T14:09:45.315Z,13.20
2024-01-11T14:12:11.935Z,12.73
2024-01-11T14:14:38.609Z,13.80
2024-01-11T14:17:05.212Z,14.40
2024-01-11T14:19:31.861Z,14.18
2024-01-11T14:21:58.691Z,12.33
2024-01-11T14:24:32.943Z,12.15
2024-01-11T14:27:03.000Z,13.77
2024-01-11T14:29:30.372Z,10.30
2024-01-11T14:31:56.903Z,12.93
2024-01-11T14:34:25.800Z,12.57
2024-01-11T14:36:53.333Z,12.23
2024-01-11T14:39:19.873Z,9.70
2024-01-11T14:41:46.859Z,12.48
2024-01-11T14:44:13.518Z,11.65
2024-01-11T14:46:40.140Z,11.87
2024-01-11T14:49:09.202Z,9.75
2024-01-11T14:51:38.145Z,10.07
2024-01-11T14:54:05.361Z,9.05
2024-01-11T14:56:32.316Z,12.82
2024-01-11T14:58:58.873Z,11.10
2024-01-11T15:01:25.560Z,10.40
2024-01-11T15:03:52.280Z,14.57
2024-01-11T15:06:19.081Z,10.65
2024-01-11T15:08:45.700Z,11.40
2024-01-11T15:11:12.280Z,13.30
2024-01-11T15:13:38.894Z,11.15
2024-01-11T15:16:05.473Z,9.43
2024-01-11T15:18:32.663Z,14.98
2024-01-11T15:20:59.655Z,11.60
2024-01-11T15:23:26.254Z,10.07
2024-01-11T15:25:53.393Z,12.25
2024-01-11T15:28:19.976Z,9.90
2024-01-11T15:30:46.805Z,11.48
2024-01-11T15:33:14.245Z,12.52
2024-01-11T15:35:41.047Z,11.50
2024-01-11T15:38:07.575Z,11.82
2024-01-11T15:40:34.174Z,10.25
2024-01-11T15:43:00.707Z,9.90
2024-01-11T15:45:27.241Z,12.07
2024-01-11T15:47:53.834Z,11.67
2024-01-11T15:50:20.694Z,13.77
2024-01-11T15:52:47.237Z,12.32
2024-01-11T15:55:13.898Z,13.95
2024-01-11T15:57:40.787Z,10.80
2024-01-11T16:00:11.440Z,12.23
2024-01-11T16:02:39.815Z,11.90
2024-01-11T16:05:06.793Z,10.95
2024-01-11T16:07:33.837Z,14.30
2024-01-11T16:10:00.369Z,12.77
2024-01-11T16:12:26.997Z,14.90
2024-01-11T16:14:58.174Z,10.43
2024-01-11T16:17:25.885Z,12.85
2024-01-11T16:19:52.533Z,12.98
2024-01-11T16:22:21.504Z,15.02
2024-01-11T16:24:48.987Z,15.37
2024-01-11T16:27:15.926Z,10.95
2024-01-11T16:29:43.305Z,14.00
2024-01-11T16:32:10.216Z,12.45
2024-01-11T16:34:40.248Z,15.38
2024-01-11T16:37:07.472Z,12.00
2024-01-11T16:39:34.105Z,11.82
2024-01-11T16:42:00.676Z,16.30
2024-01-11T16:44:28.439Z,11.95
2024-01-11T16:46:55.177Z,13.70
2024-01-11T16:49:23.436Z,14.13
2024-01-11T16:51:52.993Z,12.43
2024-01-11T16:54:20.026Z,13.77
2024-01-11T16:56:47.283Z,16.73
2024-01-11T16:59:18.240Z,15.43
2024-01-11T17:01:44.826Z,16.67
2024-01-11T17:04:11.946Z,15.75
2024-01-11T17:06:38.975Z,13.20
2024-01-11T17:13:02.074Z,13.80
2024-01-11T17:19:10.377Z,16.15
2024-01-11T17:21:36.914Z,15.15
2024-01-11T17:24:03.852Z,15.35
2024-01-11T17:26:30.383Z,15.85
2024-01-11T17:33:04.321Z,12.15
2024-01-11T17:46:08.012Z,15.73
2024-01-11T17:48:34.902Z,13.48
2024-01-11T17:51:01.714Z,17.45
2024-01-11T17:53:29.297Z,19.52
2024-01-11T17:55:55.939Z,14.43
2024-01-11T17:58:24.441Z,13.47
2024-01-11T18:00:51.286Z,11.30
2024-01-11T18:07:09.269Z,14.15
2024-01-11T18:13:26.952Z,16.50
2024-01-11T18:15:53.704Z,18.60
2024-01-11T18:18:20.369Z,13.13
2024-01-11T18:20:50.718Z,18.05
2024-01-11T18:23:19.502Z,16.83
2024-01-11T18:25:46.022Z,13.90
2024-01-11T18:28:12.688Z,15.20
2024-01-11T18:30:39.477Z,15.50
2024-01-11T18:33:07.541Z,19.42
2024-01-11T18:35:34.379Z,15.27
2024-01-11T18:38:00.970Z,19.43
2024-01-11T18:40:27.468Z,13.10
2024-01-11T18:43:20.931Z,12.38
2024-01-11T18:46:18.443Z,14.77
2024-01-11T18:48:45.148Z,13.68
2024-01-11T18:51:11.881Z,15.50
2024-01-11T18:53:44.968Z,15.07
2024-01-11T19:00:07.630Z,13.38
2024-01-11T19:02:34.215Z,15.70
2024-01-11T19:05:00.960Z,13.80
2024-01-11T19:07:27.566Z,12.48
2024-01-11T19:09:54.392Z,17.38
2024-01-11T19:12:29.068Z,16.27
2024-01-11T19:14:55.658Z,13.20
2024-01-11T19:17:22.371Z,14.33
2024-01-11T19:20:55.250Z,15.15
2024-01-11T19:23:26.734Z,17.27
2024-01-11T19:25:58.296Z,13.20
2024-01-11T19:28:25.593Z,21.55
2024-01-11T19:30:53.612Z,15.50
2024-01-11T19:33:20.447Z,17.55
2024-01-11T19:35:58.634Z,14.82
2024-01-11T19:38:25.570Z,15.20
2024-01-11T19:40:52.291Z,18.58
2024-01-11T19:43:19.078Z,17.23
2024-01-11T19:45:45.708Z,15.90
2024-01-11T19:48:13.262Z,17.17
2024-01-11T19:50:40.149Z,20.73
2024-01-11T19:53:06.793Z,18.95
2024-01-11T19:55:34.822Z,19.17
2024-01-11T19:58:01.342Z,20.88
2024-01-11T20:00:28.404Z,15.27
2024-01-11T20:02:55.061Z,16.40
2024-01-11T20:05:21.707Z,15.50
2024-01-11T20:07:48.552Z,16.93
2024-01-11T20:10:15.306Z,17.48
2024-01-11T20:12:42.174Z,15.77
2024-01-11T20:15:10.394Z,17.27
2024-01-11T20:18:09.511Z,21.58
2024-01-11T20:20:37.411Z,25.97
2024-01-11T20:23:04.260Z,23.23
2024-01-11T20:25:30.845Z,25.42
2024-01-11T20:27:57.521Z,20.50
2024-01-11T20:30:25.969Z,22.10
2024-01-11T20:36:56.892Z,19.88
2024-01-11T20:43:19.921Z,20.30
2024-01-11T20:49:52.534Z,21.77
2024-01-11T20:56:18.021Z,16.52
2024-01-11T21:02:35.624Z,16.90
2024-01-11T21:08:54.064Z,19.17
2024-01-11T21:11:22.380Z,19.60
2024-01-11T21:13:50.275Z,19.27
2024-01-11T21:16:17.052Z,16.90
2024-01-11T21:18:43.809Z,14.87
2024-01-11T21:21:10.454Z,21.67
2024-01-11T21:23:37.509Z,19.45
2024-01-11T21:26:04.198Z,20.08
2024-01-11T21:29:43.691Z,20.08
2024-01-11T21:32:10.446Z,20.47
2024-01-11T21:34:37.130Z,24.45
2024-01-11T21:37:03.803Z,27.02
2024-01-11T21:39:30.373Z,26.55
2024-01-11T21:41:56.974Z,30.52
2024-01-11T21:44:50.915Z,30.17
2024-01-11T21:51:13.232Z,27.83
2024-01-11T21:57:22.878Z,25.33
2024-01-11T22:03:42.932Z,21.92
2024-01-11T22:07:11.453Z,19.67
2024-01-11T22:09:39.436Z,19.77
2024-01-11T22:12:06.705Z,19.60
2024-01-11T22:14:33.480Z,21.07
2024-01-11T22:17:00.030Z,22.50
2024-01-11T22:19:26.677Z,21.27
2024-01-11T22:21:53.274Z,19.48
2024-01-11T22:24:19.746Z,20.40
2024-01-11T22:26:46.322Z,16.73
2024-01-11T22:29:12.948Z,16.88
2024-01-11T22:31:39.629Z,14.82
2024-01-11T22:34:06.409Z,12.90
2024-01-11T22:36:33.034Z,16.25
2024-01-11T22:38:59.825Z,16.73
2024-01-11T22:41:26.615Z,17.42
2024-01-11T22:43:54.484Z,15.80
2024-01-11T22:46:21.040Z,13.50
2024-01-11T22:48:48.013Z,16.95
2024-01-11T22:51:15.822Z,15.50
2024-01-11T22:53:44.845Z,12.52
2024-01-11T22:56:11.469Z,11.15
2024-01-11T22:58:38.036Z,14.45
2024-01-11T23:01:04.776Z,12.80
2024-01-11T23:03:31.530Z,17.40
2024-01-11T23:05:58.168Z,13.75
2024-01-11T23:08:24.862Z,15.63
2024-01-11T23:10:51.469Z,14.90
2024-01-11T23:13:18.017Z,21.05
2024-01-11T23:15:44.575Z,15.93
2024-01-11T23:18:11.617Z,15.30
2024-01-11T23:20:38.388Z,9.90
2024-01-11T23:23:05.015Z,12.98
2024-01-11T23:25:34.146Z,13.65
2024-01-11T23:28:01.378Z,10.83
2024-01-11T23:30:28.073Z,12.80
2024-01-11T23:32:54.729Z,11.93
2024-01-11T23:35:21.354Z,8.38
2024-01-11T23:37:48.201Z,11.80
2024-01-11T23:40:14.832Z,16.83
2024-01-11T23:42:41.347Z,11.88
2024-01-11T23:45:08.377Z,14.13
2024-01-11T23:47:35.853Z,16.10
2024-01-11T23:50:02.655Z,8.68
2024-01-11T23:52:29.227Z,10.30
2024-01-11T23:54:55.744Z,11.45
2024-01-11T23:57:22.240Z,10.55
2024-01-11T23:59:48.870Z,8.90
